Archival Weather

Chicago O'Hare International

Chicago, Illinois (KORD)

Report from: Saturday, March 5, 2022 9:51 PM CST
Current time: Saturday, February 4, 2023 11:13 PM CST

Current weather
Weather history
Weather forecast

Temperature17.2°C (63.0°F)
Dew point12.8°C (55.0°F)
Winds 21 kts (10.8 m/s, 24.2 mph) South-Southwest (200°)
Wind gusts 38 kts (19.5 m/s, 43.7 mph)
Peak wind 38 kts (19.5 m/s, 43.7 mph) South-Southwest (200°) at 21:46
Visibility10 mi. (16.1 km)
Clouds Ceiling: Broken clouds 2,400 ft. (732 m)
Broken clouds 3,700 ft. (1,128 m)
Altimeter29.63 in.Hg (1003 mB)
Relative humidity75 %
Density altitude800 ft. (244 m)
Sea-level pressure100.3 kPa (1003 mB, 29.63 in.Hg)
Remarks System requires maintenance
Automated weather observing station with precipitation discriminator
Flight conditions Marginal Visual Meteorological Conditions
Raw dataKORD 060351Z 20021G38KT 10SM BKN024 BKN037 17/13 A2963 RMK AO2 PK WND 20038/0346 SLP033 T01720128 $
An unhandled exception has occurred. See browser dev tools for details. Reload 🗙